Terminal Aerodrome Forecast
Issued by NWS Twin Cities, MN

Home | Current Version | Previous Version | Graphics & Text | Print | Product List | Glossary On
Versions: 1 2 3 4 5 6 7 8 9 10 11 12 13 14 15 16 17 18 19 20 21
000
FTUS43 KMPX 291259 AAA
TAFEAU
TAF AMD
KEAU 291259Z 2913/3012 18007KT P6SM SCT020 OVC050
      TEMPO 2913/2914 5SM -SHRA BKN020
     FM291400 22008KT 5SM -SHRA BR BKN020 OVC040
     FM291900 25010G18KT 6SM -SHRA BR VCTS BKN025 OVC040CB
      TEMPO 2920/2923 5SM -TSRA
     FM300000 34009KT 4SM -SHRA BR OVC015
     FM300200 35012KT P6SM BKN015=

USA.gov is the U.S. government's official web portal to all federal, state and local government web resources and services.